createdAt,value
2023-05-18T00:02:51.799Z,13.27
2023-05-18T00:05:53.906Z,14.09
2023-05-18T00:08:56.235Z,13.72
2023-05-18T00:11:58.495Z,13.79
2023-05-18T00:15:03.849Z,13.22
2023-05-18T00:18:06.886Z,13.43
2023-05-18T00:21:09.316Z,13.94
2023-05-18T00:24:11.309Z,13.70
2023-05-18T00:27:13.404Z,13.79
2023-05-18T00:30:18.116Z,12.90
2023-05-18T00:33:20.114Z,13.20
2023-05-18T00:36:22.055Z,13.44
2023-05-18T00:39:24.154Z,13.21
2023-05-18T00:42:26.201Z,13.39
2023-05-18T00:45:28.528Z,13.41
2023-05-18T00:48:33.925Z,13.31
2023-05-18T00:51:36.089Z,13.91
2023-05-18T00:54:38.077Z,13.57
2023-05-18T00:57:44.190Z,13.49
2023-05-18T01:00:46.360Z,14.05
2023-05-18T01:03:48.274Z,13.70
2023-05-18T01:06:50.979Z,13.31
2023-05-18T01:09:54.005Z,13.40
2023-05-18T01:13:01.454Z,13.99
2023-05-18T01:16:03.705Z,13.28
2023-05-18T01:19:18.170Z,13.36
2023-05-18T01:22:38.998Z,13.24
2023-05-18T01:25:41.112Z,13.50
2023-05-18T01:28:51.457Z,13.06
2023-05-18T01:31:53.526Z,13.25
2023-05-18T01:34:55.692Z,13.48
2023-05-18T01:37:57.939Z,13.57
2023-05-18T01:41:18.519Z,13.67
2023-05-18T01:44:30.003Z,13.55
2023-05-18T01:47:32.029Z,14.24
2023-05-18T01:50:37.967Z,14.23
2023-05-18T01:53:42.502Z,13.71
2023-05-18T01:56:44.554Z,13.29
2023-05-18T01:59:46.588Z,13.18
2023-05-18T02:02:48.804Z,12.87
2023-05-18T02:05:51.035Z,13.75
2023-05-18T02:08:53.011Z,13.09
2023-05-18T02:11:55.138Z,13.89
2023-05-18T02:14:58.547Z,13.22
2023-05-18T02:18:00.822Z,13.60
2023-05-18T02:21:02.895Z,13.11
2023-05-18T02:24:05.658Z,13.06
2023-05-18T02:27:07.617Z,13.18
2023-05-18T02:30:09.782Z,13.18
2023-05-18T02:33:11.772Z,14.08
2023-05-18T02:36:14.085Z,13.08
2023-05-18T02:39:16.254Z,13.48
2023-05-18T02:42:18.159Z,13.77
2023-05-18T02:45:21.203Z,13.65
2023-05-18T02:48:23.382Z,13.57
2023-05-18T02:51:25.396Z,13.57
2023-05-18T02:54:29.516Z,13.85
2023-05-18T02:57:32.806Z,13.62
2023-05-18T03:00:34.736Z,14.25
2023-05-18T03:03:36.821Z,14.09
2023-05-18T03:06:38.805Z,14.09
2023-05-18T03:09:40.861Z,14.38
2023-05-18T03:12:42.851Z,14.09
2023-05-18T03:15:48.367Z,13.83
2023-05-18T03:18:50.549Z,13.35
2023-05-18T03:21:52.511Z,13.30
2023-05-18T03:24:55.728Z,13.53
2023-05-18T03:27:58.340Z,13.44
2023-05-18T03:31:00.472Z,13.49
2023-05-18T03:34:02.796Z,13.43
2023-05-18T03:37:04.781Z,13.77
2023-05-18T03:40:11.220Z,13.74
2023-05-18T03:43:13.349Z,12.94
2023-05-18T03:46:15.845Z,12.79
2023-05-18T03:49:18.021Z,13.78
2023-05-18T03:52:22.512Z,13.83
2023-05-18T03:55:24.508Z,13.54
2023-05-18T03:58:27.542Z,14.06
2023-05-18T04:01:31.246Z,13.74
2023-05-18T04:04:33.402Z,13.62
2023-05-18T04:07:43.695Z,13.62
2023-05-18T04:10:46.158Z,12.76
2023-05-18T04:13:48.212Z,13.45
2023-05-18T04:16:52.116Z,13.69
2023-05-18T04:19:54.500Z,13.69
2023-05-18T04:22:57.593Z,13.46
2023-05-18T04:26:00.135Z,12.61
2023-05-18T04:29:07.740Z,13.09
2023-05-18T04:32:11.359Z,13.41
2023-05-18T04:35:13.464Z,13.60
2023-05-18T04:38:16.402Z,13.46
2023-05-18T04:41:20.635Z,13.97
2023-05-18T04:44:22.648Z,13.89
2023-05-18T04:47:24.794Z,14.42
2023-05-18T04:50:28.130Z,14.05
2023-05-18T04:53:33.554Z,14.38
2023-05-18T04:56:35.623Z,13.96
2023-05-18T04:59:37.631Z,14.01
2023-05-18T05:02:40.256Z,14.01
2023-05-18T05:05:42.425Z,14.11
2023-05-18T05:08:44.554Z,14.28
2023-05-18T05:11:46.579Z,14.19
2023-05-18T05:14:48.565Z,14.04
2023-05-18T05:17:50.668Z,14.02
2023-05-18T05:20:53.418Z,14.20
2023-05-18T05:23:55.589Z,14.02
2023-05-18T05:26:59.840Z,15.01
2023-05-18T05:30:01.784Z,14.36
2023-05-18T05:33:04.050Z,14.26
2023-05-18T05:36:06.684Z,14.32
2023-05-18T05:39:08.571Z,14.40
2023-05-18T05:42:10.727Z,14.40
2023-05-18T05:45:14.953Z,13.65
2023-05-18T05:48:17.218Z,13.44
2023-05-18T05:51:22.765Z,14.47
2023-05-18T05:54:24.992Z,14.21
2023-05-18T05:57:27.111Z,14.22
2023-05-18T06:00:29.127Z,14.66
2023-05-18T06:03:33.620Z,14.62
2023-05-18T06:06:37.722Z,14.60
2023-05-18T06:09:39.846Z,14.38
2023-05-18T06:12:42.143Z,14.66
2023-05-18T06:15:44.194Z,13.89
2023-05-18T06:18:46.739Z,13.52
2023-05-18T06:21:49.402Z,13.40
2023-05-18T06:24:52.285Z,14.86
2023-05-18T06:27:54.452Z,14.87
2023-05-18T06:30:57.015Z,14.10
2023-05-18T06:33:59.048Z,14.52
2023-05-18T06:37:01.001Z,14.22
2023-05-18T06:40:05.086Z,13.87
2023-05-18T06:43:07.196Z,14.24
2023-05-18T06:46:09.471Z,14.09
2023-05-18T06:49:11.492Z,13.96
2023-05-18T06:52:14.020Z,13.96
2023-05-18T06:55:19.325Z,13.92
2023-05-18T06:58:21.548Z,12.96
2023-05-18T07:01:24.158Z,13.59
2023-05-18T07:04:26.685Z,13.49
2023-05-18T07:07:28.846Z,12.70
2023-05-18T07:10:34.836Z,12.97
2023-05-18T07:13:36.881Z,12.46
2023-05-18T07:16:39.628Z,12.81
2023-05-18T07:19:42.467Z,13.21
2023-05-18T07:22:44.569Z,12.53
2023-05-18T07:25:49.437Z,12.86
2023-05-18T07:28:54.071Z,12.89
2023-05-18T07:31:59.136Z,12.81
2023-05-18T07:35:01.225Z,13.03
2023-05-18T07:38:06.643Z,13.98
2023-05-18T07:41:08.707Z,13.14
2023-05-18T07:44:11.123Z,13.42
2023-05-18T07:47:13.204Z,13.19
2023-05-18T07:50:15.303Z,13.26
2023-05-18T07:53:19.800Z,13.08
2023-05-18T07:56:24.930Z,13.46
2023-05-18T07:59:26.910Z,13.16
2023-05-18T08:02:30.253Z,13.49
2023-05-18T08:05:34.435Z,13.78
2023-05-18T08:08:40.197Z,14.00
2023-05-18T08:11:43.406Z,13.77
2023-05-18T08:14:45.379Z,13.49
2023-05-18T08:17:50.080Z,13.92
2023-05-18T08:24:11.909Z,14.04
2023-05-18T08:27:14.012Z,14.62
2023-05-18T08:30:16.442Z,14.06
2023-05-18T08:33:18.996Z,14.81
2023-05-18T08:36:21.181Z,15.39
2023-05-18T08:39:23.406Z,14.24
2023-05-18T08:42:50.063Z,14.67
2023-05-18T08:45:54.810Z,14.86
2023-05-18T08:48:57.005Z,15.41
2023-05-18T08:52:01.244Z,15.16
2023-05-18T08:55:07.924Z,15.68
2023-05-18T08:58:11.231Z,15.49
2023-05-18T09:01:13.416Z,14.50
2023-05-18T09:04:15.476Z,15.84
2023-05-18T09:07:17.604Z,15.37
2023-05-18T09:10:19.799Z,14.71
2023-05-18T09:13:21.897Z,14.56
2023-05-18T09:16:24.683Z,14.86
2023-05-18T09:19:27.360Z,15.23
2023-05-18T09:22:29.775Z,15.27
2023-05-18T09:25:32.722Z,15.47
2023-05-18T09:28:38.591Z,14.82
2023-05-18T09:31:41.248Z,16.28
2023-05-18T09:34:45.605Z,16.03
2023-05-18T09:37:50.431Z,15.58
2023-05-18T09:40:53.018Z,15.60
2023-05-18T09:43:55.502Z,16.28
2023-05-18T09:46:58.494Z,16.13
2023-05-18T09:50:00.751Z,15.72
2023-05-18T09:53:04.139Z,16.04
2023-05-18T09:56:09.539Z,15.46
2023-05-18T09:59:12.328Z,16.59
2023-05-18T10:02:15.699Z,15.16
2023-05-18T10:05:36.293Z,16.15
2023-05-18T10:08:40.323Z,16.62
2023-05-18T10:11:43.378Z,16.54
2023-05-18T10:14:49.689Z,16.67
2023-05-18T10:17:55.847Z,16.08
2023-05-18T10:21:01.930Z,16.69
2023-05-18T10:24:04.852Z,15.74
2023-05-18T10:27:08.249Z,16.56
2023-05-18T10:30:10.521Z,15.66
2023-05-18T10:33:24.765Z,15.52
2023-05-18T10:36:38.633Z,16.51
2023-05-18T10:39:51.543Z,16.44
2023-05-18T10:43:03.395Z,15.43
2023-05-18T10:46:07.114Z,16.46
2023-05-18T10:49:15.788Z,16.20
2023-05-18T10:52:18.255Z,15.72
2023-05-18T10:55:20.915Z,16.55
2023-05-18T10:58:42.553Z,16.74
2023-05-18T11:01:45.136Z,16.45
2023-05-18T11:04:51.939Z,16.00
2023-05-18T11:08:10.451Z,15.98
2023-05-18T11:11:12.897Z,15.86
2023-05-18T11:14:17.774Z,17.02
2023-05-18T11:17:21.399Z,16.88
2023-05-18T11:20:25.730Z,15.94
2023-05-18T11:23:33.232Z,16.23
2023-05-18T11:26:41.576Z,16.63
2023-05-18T11:30:03.682Z,16.23
2023-05-18T11:33:22.289Z,16.91
2023-05-18T11:36:26.819Z,16.72
2023-05-18T11:39:29.346Z,16.82
2023-05-18T11:42:35.106Z,16.66
2023-05-18T11:45:37.276Z,17.31
2023-05-18T11:48:39.526Z,16.53
2023-05-18T11:52:00.838Z,16.87
2023-05-18T11:55:02.992Z,17.57
2023-05-18T11:58:05.156Z,17.23
2023-05-18T12:01:17.732Z,16.37
2023-05-18T12:04:31.979Z,16.34
2023-05-18T12:07:46.928Z,17.02
2023-05-18T12:10:49.438Z,15.93
2023-05-18T12:13:55.402Z,15.73
2023-05-18T12:16:58.370Z,16.13
2023-05-18T12:20:07.135Z,17.14
2023-05-18T12:23:09.842Z,17.03
2023-05-18T12:26:15.338Z,16.91
2023-05-18T12:29:20.263Z,16.28
2023-05-18T12:32:23.439Z,16.90
2023-05-18T12:35:32.517Z,17.13
2023-05-18T12:38:46.908Z,17.02
2023-05-18T12:41:56.329Z,17.51
2023-05-18T12:45:02.497Z,17.59
2023-05-18T12:48:12.749Z,16.87
2023-05-18T12:51:22.087Z,17.10
2023-05-18T12:54:30.315Z,17.76
2023-05-18T12:57:36.159Z,17.44
2023-05-18T13:00:38.236Z,17.63
2023-05-18T13:03:40.714Z,17.12
2023-05-18T13:06:43.439Z,18.36
2023-05-18T13:09:52.302Z,18.23
2023-05-18T13:13:01.947Z,17.12
2023-05-18T13:16:04.297Z,16.88
2023-05-18T13:19:07.452Z,17.18
2023-05-18T13:22:09.937Z,16.46
2023-05-18T13:25:13.146Z,17.23
2023-05-18T13:28:16.720Z,17.23
2023-05-18T13:31:20.159Z,17.46
2023-05-18T13:34:22.586Z,16.22
2023-05-18T13:37:24.940Z,16.53
2023-05-18T13:40:27.337Z,16.63
2023-05-18T13:43:35.404Z,17.13
2023-05-18T13:46:39.684Z,17.57
2023-05-18T13:49:42.084Z,16.61
2023-05-18T13:52:44.419Z,16.91
2023-05-18T13:55:48.100Z,15.92
2023-05-18T13:58:50.624Z,16.53
2023-05-18T14:01:55.261Z,16.13
2023-05-18T14:04:58.770Z,16.65
2023-05-18T14:08:01.660Z,17.12
2023-05-18T14:11:04.248Z,16.66
2023-05-18T14:14:06.442Z,16.37
2023-05-18T14:17:10.645Z,17.42
2023-05-18T14:20:13.602Z,17.67
2023-05-18T14:23:15.834Z,16.77
2023-05-18T14:26:17.954Z,16.72
2023-05-18T14:29:22.715Z,16.55
2023-05-18T14:32:27.341Z,16.77
2023-05-18T14:35:29.598Z,16.79
2023-05-18T14:38:32.470Z,16.90
2023-05-18T14:41:37.778Z,17.54
2023-05-18T14:44:40.045Z,17.52
2023-05-18T14:47:42.188Z,17.62
2023-05-18T14:50:44.446Z,17.53
2023-05-18T14:53:46.764Z,16.75
2023-05-18T14:56:49.115Z,16.77
2023-05-18T14:59:51.650Z,16.43
2023-05-18T15:03:03.265Z,16.78
2023-05-18T15:06:08.808Z,16.65
2023-05-18T15:09:15.157Z,16.57
2023-05-18T15:12:18.862Z,17.01
2023-05-18T15:15:27.315Z,17.47
2023-05-18T15:18:57.794Z,16.98
2023-05-18T15:22:06.373Z,16.24
2023-05-18T15:25:08.797Z,17.00
2023-05-18T15:28:13.988Z,16.48
2023-05-18T15:31:16.446Z,16.86
2023-05-18T15:34:18.950Z,17.00
2023-05-18T15:37:21.071Z,16.93
2023-05-18T15:40:23.506Z,16.81
2023-05-18T15:43:28.645Z,16.86
2023-05-18T15:46:38.144Z,16.81
2023-05-18T15:49:40.135Z,16.39
2023-05-18T15:52:42.861Z,16.38
2023-05-18T15:55:47.268Z,17.12
2023-05-18T15:58:49.399Z,16.76
2023-05-18T16:01:51.830Z,16.92
2023-05-18T16:04:59.336Z,17.50
2023-05-18T16:08:01.839Z,16.67
2023-05-18T16:11:05.607Z,16.32
2023-05-18T16:14:12.851Z,17.32
2023-05-18T16:17:28.352Z,16.51
2023-05-18T16:20:30.917Z,16.36
2023-05-18T16:23:37.834Z,16.59
2023-05-18T16:26:42.405Z,16.33
2023-05-18T16:29:46.910Z,16.96
2023-05-18T16:32:49.186Z,16.69
2023-05-18T16:35:53.853Z,16.76
2023-05-18T16:38:57.759Z,16.65
2023-05-18T16:42:02.065Z,16.83
2023-05-18T16:45:25.795Z,16.52
2023-05-18T16:48:38.145Z,16.77
2023-05-18T16:51:40.627Z,16.32
2023-05-18T16:54:43.027Z,16.88
2023-05-18T16:57:50.767Z,16.42
2023-05-18T17:00:55.699Z,16.39
2023-05-18T17:03:58.052Z,16.75
2023-05-18T17:07:02.809Z,17.13
2023-05-18T17:10:05.405Z,17.75
2023-05-18T17:13:08.176Z,16.27
2023-05-18T17:16:14.287Z,16.52
2023-05-18T17:19:16.659Z,15.79
2023-05-18T17:22:28.350Z,15.68
2023-05-18T17:25:30.584Z,16.17
2023-05-18T17:28:32.781Z,16.61
2023-05-18T17:31:35.013Z,16.18
2023-05-18T17:34:40.482Z,16.79
2023-05-18T17:37:42.566Z,16.40
2023-05-18T17:40:44.467Z,16.83
2023-05-18T17:43:46.514Z,16.33
2023-05-18T17:46:50.946Z,16.60
2023-05-18T17:49:53.123Z,16.37
2023-05-18T17:52:55.451Z,16.13
2023-05-18T17:56:00.124Z,16.34
2023-05-18T17:59:02.305Z,15.96
2023-05-18T18:02:04.529Z,15.75
2023-05-18T18:05:06.648Z,14.97
2023-05-18T18:08:08.937Z,15.44
2023-05-18T18:11:11.189Z,15.87
2023-05-18T18:14:17.375Z,15.66
2023-05-18T18:17:19.460Z,15.91
2023-05-18T18:20:21.629Z,15.32
2023-05-18T18:23:25.307Z,15.20
2023-05-18T18:26:27.351Z,15.58
2023-05-18T18:29:31.147Z,15.83
2023-05-18T18:32:33.311Z,15.79
2023-05-18T18:35:35.992Z,15.44
2023-05-18T18:38:38.284Z,15.55
2023-05-18T18:41:42.594Z,15.76
2023-05-18T18:44:44.675Z,15.80
2023-05-18T18:47:47.151Z,16.61
2023-05-18T18:50:49.499Z,17.04
2023-05-18T18:53:51.749Z,16.55
2023-05-18T18:56:54.289Z,16.32
2023-05-18T18:59:56.521Z,16.16
2023-05-18T19:02:58.641Z,16.41
2023-05-18T19:06:00.768Z,16.00
2023-05-18T19:09:04.295Z,15.56
2023-05-18T19:12:06.697Z,15.75
2023-05-18T19:15:08.994Z,15.75
2023-05-18T19:18:15.085Z,15.69
2023-05-18T19:21:18.918Z,15.42
2023-05-18T19:24:21.595Z,15.99
2023-05-18T19:27:25.013Z,15.87
2023-05-18T19:30:27.336Z,15.64
2023-05-18T19:33:31.982Z,16.07
2023-05-18T19:36:34.013Z,15.68
2023-05-18T19:39:36.051Z,15.66
2023-05-18T19:42:37.972Z,16.25
2023-05-18T19:45:39.947Z,16.19
2023-05-18T19:48:42.350Z,15.87
2023-05-18T19:51:44.382Z,16.04
2023-05-18T19:54:46.429Z,16.52
2023-05-18T19:57:48.488Z,17.00
2023-05-18T20:00:52.721Z,17.31
2023-05-18T20:03:57.002Z,17.18
2023-05-18T20:07:02.179Z,16.12
2023-05-18T20:10:04.404Z,15.98
2023-05-18T20:13:06.403Z,15.60
2023-05-18T20:16:08.513Z,16.50
2023-05-18T20:19:11.980Z,16.77
2023-05-18T20:22:14.173Z,16.14
2023-05-18T20:25:16.361Z,16.21
2023-05-18T20:28:18.419Z,16.43
2023-05-18T20:31:20.818Z,16.15
2023-05-18T20:34:23.121Z,16.00
2023-05-18T20:37:26.399Z,16.17
2023-05-18T20:40:30.964Z,16.32
2023-05-18T20:43:33.589Z,15.80
2023-05-18T20:46:37.708Z,16.24
2023-05-18T20:49:39.848Z,16.76
2023-05-18T20:52:41.782Z,16.47
2023-05-18T20:55:48.597Z,16.24
2023-05-18T20:58:50.603Z,16.62
2023-05-18T21:01:53.040Z,16.25
2023-05-18T21:04:58.074Z,15.70
2023-05-18T21:08:02.482Z,16.24
2023-05-18T21:11:04.436Z,16.84
2023-05-18T21:14:06.484Z,16.72
2023-05-18T21:17:08.587Z,16.90
2023-05-18T21:20:13.036Z,15.67
2023-05-18T21:23:14.941Z,16.13
2023-05-18T21:26:22.022Z,16.32
2023-05-18T21:29:24.109Z,16.42
2023-05-18T21:32:26.120Z,17.02
2023-05-18T21:35:28.212Z,16.40
2023-05-18T21:38:30.236Z,15.60
2023-05-18T21:41:32.338Z,16.54
2023-05-18T21:44:34.489Z,16.50
2023-05-18T21:47:39.357Z,16.58
2023-05-18T21:50:41.397Z,16.52
2023-05-18T21:53:43.419Z,16.49
2023-05-18T21:56:45.427Z,16.15
2023-05-18T21:59:47.390Z,17.09
2023-05-18T22:02:49.556Z,17.63
2023-05-18T22:05:52.664Z,17.24
2023-05-18T22:08:54.737Z,17.08
2023-05-18T22:11:57.579Z,16.83
2023-05-18T22:14:59.637Z,16.79
2023-05-18T22:18:02.229Z,17.08
2023-05-18T22:21:04.470Z,17.03
2023-05-18T22:24:06.612Z,16.70
2023-05-18T22:27:10.427Z,16.36
2023-05-18T22:30:13.630Z,17.20
2023-05-18T22:33:17.044Z,17.18
2023-05-18T22:36:21.625Z,16.82
2023-05-18T22:39:24.366Z,16.90
2023-05-18T22:42:26.879Z,17.56
2023-05-18T22:45:28.816Z,16.88
2023-05-18T22:48:34.768Z,16.81
2023-05-18T22:51:36.889Z,16.42
2023-05-18T22:54:38.919Z,16.74
2023-05-18T22:57:41.291Z,16.41
2023-05-18T23:00:43.413Z,16.35
2023-05-18T23:03:45.469Z,15.75
2023-05-18T23:06:51.718Z,15.99
2023-05-18T23:09:53.968Z,15.83
2023-05-18T23:12:58.421Z,16.11
2023-05-18T23:16:02.460Z,15.52
2023-05-18T23:19:04.624Z,15.45
2023-05-18T23:22:06.702Z,15.54
2023-05-18T23:25:09.940Z,15.09
2023-05-18T23:28:11.981Z,15.57
2023-05-18T23:31:14.025Z,15.48
2023-05-18T23:34:16.158Z,15.55
2023-05-18T23:37:20.794Z,16.11
2023-05-18T23:40:22.798Z,16.68
2023-05-18T23:43:25.131Z,16.16
2023-05-18T23:46:27.359Z,16.57
2023-05-18T23:49:30.004Z,16.75
2023-05-18T23:52:32.575Z,15.82
2023-05-18T23:55:34.531Z,15.93
2023-05-18T23:58:36.588Z,15.01
